Lancaster, OH (43130)

7:39 AM EDT on April 18, 2015 (GMT -0400)
W Wheeling St Near N George St | | Change Station
CLOSE
Current Station
Personal Weather Station
Location: Lancaster, OH
Elevation: 835 ft
Nearby Weather Stations

Elev 835 ft 39.71 °N, 82.61 °W | Updated 2 minutes ago

Clear
Clear
45.4 °F
Feels Like 45 °F
N
0.0
Wind Variable Wind from WNW
Gusts 0.0 mph

Today
High -- | Low -- °F
--% Chance of Precip.
Yesterday
High -- | Low -- °F
Precip. -- in
6:48 AM 8:11 PM
Waning Crescent, 0% visible
Pressure 30.06 in
Visibility 7.0 miles
Clouds Clear
Windchill 45 °F
Dew Point 43 °F
Humidity 91%
Rainfall 0.00 in
Snow Depth Not available.
UV 0.0 out of 12
Pollen 11.30 out of 12
Air Quality Not available.
Flu Activity Regional
METAR KLHQ 181053Z AUTO 00000KT 7SM CLR 07/06 A3007 RMK AO2 SLP179 T00720056

More Conditions Fewer Conditions

Pressure 30.06 in
Visibility 7.0 miles
Clouds Clear
Windchill 45 °F
Dew Point 43 °F
Humidity 91%
Rainfall 0.00 in
Snow Depth Not available.
UV 0.0 out of 12
Pollen 11.30 out of 12
Air Quality Not available.
Flu Activity Regional
METAR KLHQ 181053Z AUTO 00000KT 7SM CLR 07/06 A3007 RMK AO2 SLP179 T00720056

More Conditions Fewer Conditions

10-Day Weather Forecast

Almanac

Astronomy

Apr. 18, 2015 Rise Set
Actual Time
Civil Twilight
Nautical Twilight
Astronomical Twilight
Moon
Length of Visible Light
Length of Day
Tomorrow will be .
, % of the Moon is Illuminated

Today's Extremes

State Highs State Lows

Community

WunderPhotos

Upload Photos

1,814,368 photos uploaded!

WunderBlogs® & News

Nearby

Air Quality

  Air Quality AQ Index Pollutant
Not available.

Snow Depth

Station Depth Elevation

Earthquake Activity

City Distance Mag. Time & Date
Minimum magnitude displayed is 2.5.

Coastal Water Temperatures

Place Temperature

Stations

Nearby Weather Stations

Station Location Temp. Windchill Dew Point Humidity Wind Precip. Elev Updated Type